createdAt,value
2022-08-19T00:02:06.651Z,4.95
2022-08-19T00:04:38.722Z,4.93
2022-08-19T00:07:10.821Z,4.85
2022-08-19T00:09:42.848Z,5.38
2022-08-19T00:12:16.113Z,5.15
2022-08-19T00:14:48.136Z,4.93
2022-08-19T00:17:20.148Z,5.28
2022-08-19T00:19:52.272Z,4.72
2022-08-19T00:22:24.315Z,4.70
2022-08-19T00:24:56.271Z,4.65
2022-08-19T00:27:29.405Z,4.18
2022-08-19T00:30:03.818Z,5.18
2022-08-19T00:32:35.791Z,5.85
2022-08-19T00:35:08.821Z,5.15
2022-08-19T00:37:44.263Z,4.47
2022-08-19T00:40:17.511Z,4.82
2022-08-19T00:42:49.658Z,4.82
2022-08-19T00:45:25.253Z,5.20
2022-08-19T00:47:57.378Z,4.65
2022-08-19T00:50:29.382Z,4.15
2022-08-19T00:53:05.292Z,3.60
2022-08-19T00:55:38.872Z,4.10
2022-08-19T00:58:18.624Z,3.72
2022-08-19T01:00:50.597Z,3.72
2022-08-19T01:03:23.883Z,4.15
2022-08-19T01:05:56.880Z,4.90
2022-08-19T01:08:29.182Z,5.50
2022-08-19T01:11:01.924Z,8.18
2022-08-19T01:13:48.951Z,6.50
2022-08-19T01:16:25.330Z,7.47
2022-08-19T01:19:00.381Z,7.20
2022-08-19T01:21:45.056Z,5.30
2022-08-19T01:24:17.081Z,7.00
2022-08-19T01:26:49.409Z,5.20
2022-08-19T01:29:21.465Z,6.63
2022-08-19T01:31:56.120Z,4.65
2022-08-19T01:34:28.187Z,4.93
2022-08-19T01:37:00.131Z,5.35
2022-08-19T01:39:32.112Z,3.90
2022-08-19T01:42:05.373Z,5.45
2022-08-19T01:44:38.766Z,5.68
2022-08-19T01:47:10.868Z,4.60
2022-08-19T01:49:42.896Z,5.38
2022-08-19T01:52:14.861Z,5.03
2022-08-19T01:54:46.831Z,4.85
2022-08-19T01:57:18.767Z,5.90
2022-08-19T01:59:51.389Z,5.57
2022-08-19T02:02:23.465Z,5.63
2022-08-19T02:04:55.876Z,4.03
2022-08-19T02:07:30.777Z,3.78
2022-08-19T02:10:10.520Z,4.72
2022-08-19T02:12:45.276Z,6.05
2022-08-19T02:15:20.478Z,5.43
2022-08-19T02:17:52.847Z,6.57
2022-08-19T02:20:25.083Z,6.57
2022-08-19T02:22:57.112Z,7.57
2022-08-19T02:25:29.414Z,7.90
2022-08-19T02:28:01.442Z,7.43
2022-08-19T02:30:33.803Z,7.70
2022-08-19T02:33:06.379Z,7.75
2022-08-19T02:35:38.363Z,7.43
2022-08-19T02:38:28.711Z,7.70
2022-08-19T02:43:39.639Z,8.40
2022-08-19T02:46:29.820Z,8.27
2022-08-19T02:49:06.383Z,7.85
2022-08-19T02:51:43.538Z,8.63
2022-08-19T02:54:16.567Z,9.15
2022-08-19T02:56:48.546Z,9.45
2022-08-19T02:59:21.171Z,8.73
2022-08-19T03:01:55.152Z,8.65
2022-08-19T03:04:27.372Z,8.25
2022-08-19T03:07:07.136Z,9.35
2022-08-19T03:09:43.878Z,8.52
2022-08-19T03:12:15.839Z,8.75
2022-08-19T03:14:47.837Z,7.70
2022-08-19T03:17:20.381Z,9.75
2022-08-19T03:19:52.321Z,8.90
2022-08-19T03:22:24.344Z,9.07
2022-08-19T03:24:56.306Z,8.38
2022-08-19T03:27:34.177Z,8.18
2022-08-19T03:30:07.970Z,7.35
2022-08-19T03:32:45.477Z,7.63
2022-08-19T03:35:17.927Z,7.97
2022-08-19T03:37:49.985Z,6.60
2022-08-19T03:40:21.975Z,6.97
2022-08-19T03:42:53.953Z,7.25
2022-08-19T03:45:28.559Z,6.53
2022-08-19T03:48:01.607Z,5.97
2022-08-19T03:50:33.545Z,5.80
2022-08-19T03:53:05.566Z,5.35
2022-08-19T03:55:42.780Z,5.93
2022-08-19T03:58:14.748Z,5.13
2022-08-19T04:00:46.736Z,5.75
2022-08-19T04:03:19.807Z,6.97
2022-08-19T04:05:51.994Z,7.40
2022-08-19T04:08:24.121Z,8.10
2022-08-19T04:10:56.136Z,8.13
2022-08-19T04:13:28.653Z,8.43
2022-08-19T04:16:00.657Z,8.98
2022-08-19T04:18:37.556Z,10.00
2022-08-19T04:21:21.032Z,11.00
2022-08-19T04:23:54.301Z,10.95
2022-08-19T04:26:33.520Z,9.85
2022-08-19T04:29:13.003Z,12.27
2022-08-19T04:31:46.468Z,11.40
2022-08-19T04:34:23.318Z,11.35
2022-08-19T04:36:57.499Z,12.02
2022-08-19T04:39:50.270Z,11.82
2022-08-19T04:42:40.276Z,10.60
2022-08-19T04:45:15.643Z,9.93
2022-08-19T04:47:58.651Z,9.70
2022-08-19T04:50:43.997Z,9.38
2022-08-19T04:53:16.297Z,10.07
2022-08-19T04:55:48.247Z,10.93
2022-08-19T04:58:20.236Z,10.82
2022-08-19T05:00:52.904Z,10.82
2022-08-19T05:03:28.771Z,10.48
2022-08-19T05:06:08.504Z,10.80
2022-08-19T05:08:44.035Z,11.05
2022-08-19T05:11:27.347Z,12.93
2022-08-19T05:13:59.315Z,11.07
2022-08-19T05:16:31.277Z,12.18
2022-08-19T05:19:22.094Z,12.45
2022-08-19T05:22:13.248Z,13.40
2022-08-19T05:25:09.207Z,11.23
2022-08-19T05:27:38.050Z,14.00
2022-08-19T05:30:12.175Z,13.07
2022-08-19T05:32:44.585Z,15.90
2022-08-19T05:35:16.548Z,15.68
2022-08-19T05:37:48.500Z,15.02
2022-08-19T05:40:25.018Z,16.27
2022-08-19T05:42:58.794Z,14.88
2022-08-19T05:45:30.841Z,15.35
2022-08-19T05:48:02.953Z,15.07
2022-08-19T05:50:37.568Z,18.33
2022-08-19T05:53:10.046Z,17.30
2022-08-19T05:55:42.017Z,17.42
2022-08-19T05:58:14.290Z,18.25
2022-08-19T06:00:46.535Z,17.15
2022-08-19T06:03:18.519Z,17.67
2022-08-19T06:05:52.117Z,19.63
2022-08-19T06:08:34.651Z,18.48
2022-08-19T06:11:39.703Z,17.42
2022-08-19T06:14:19.608Z,17.40
2022-08-19T06:17:06.761Z,17.70
2022-08-19T06:19:40.498Z,16.42
2022-08-19T06:22:14.143Z,18.17
2022-08-19T06:24:46.151Z,17.63
2022-08-19T06:27:18.099Z,17.38
2022-08-19T06:29:50.596Z,17.45
2022-08-19T06:32:22.634Z,16.50
2022-08-19T06:34:54.598Z,15.38
2022-08-19T06:37:26.596Z,15.15
2022-08-19T06:39:58.581Z,15.20
2022-08-19T06:42:31.500Z,15.90
2022-08-19T06:45:09.249Z,16.02
2022-08-19T06:47:48.067Z,15.60
2022-08-19T06:50:20.502Z,15.20
2022-08-19T06:52:53.132Z,12.57
2022-08-19T06:55:25.441Z,9.48
2022-08-19T06:57:57.896Z,8.70
2022-08-19T07:03:22.226Z,9.65
2022-08-19T07:05:54.202Z,7.35
2022-08-19T07:08:27.599Z,8.13
2022-08-19T07:11:01.737Z,8.32
2022-08-19T07:13:44.496Z,7.88
2022-08-19T07:16:21.695Z,7.50
2022-08-19T07:19:11.527Z,7.43
2022-08-19T07:21:52.015Z,7.28
2022-08-19T07:24:27.168Z,9.35
2022-08-19T07:27:13.054Z,6.55
2022-08-19T07:29:47.614Z,5.82
2022-08-19T07:32:28.501Z,6.53
2022-08-19T07:35:01.778Z,5.68
2022-08-19T07:37:33.910Z,5.13
2022-08-19T07:40:08.341Z,4.75
2022-08-19T07:42:40.425Z,5.22
2022-08-19T07:45:12.625Z,5.40
2022-08-19T07:47:49.020Z,4.13
2022-08-19T07:50:22.947Z,3.88
2022-08-19T07:52:54.929Z,4.22
2022-08-19T07:55:42.086Z,3.42
2022-08-19T07:58:19.393Z,3.97
2022-08-19T08:00:52.468Z,3.60
2022-08-19T08:03:44.705Z,3.15
2022-08-19T08:06:36.084Z,3.30
2022-08-19T08:09:12.628Z,3.30
2022-08-19T08:11:53.851Z,3.45
2022-08-19T08:14:37.930Z,2.70
2022-08-19T08:20:10.273Z,1.88
2022-08-19T08:23:05.546Z,2.28
2022-08-19T08:25:38.347Z,2.85
2022-08-19T08:28:17.372Z,2.05
2022-08-19T08:30:50.937Z,1.95
2022-08-19T08:33:33.816Z,2.30
2022-08-19T08:36:07.347Z,2.17
2022-08-19T08:38:40.905Z,3.05
2022-08-19T08:41:31.909Z,2.00
2022-08-19T08:44:08.525Z,2.20
2022-08-19T08:47:00.312Z,2.60
2022-08-19T08:49:51.817Z,2.47
2022-08-19T08:52:33.351Z,2.00
2022-08-19T08:55:11.631Z,1.90
2022-08-19T08:57:49.884Z,2.35
2022-08-19T09:00:33.122Z,1.52
2022-08-19T09:03:12.772Z,1.75
2022-08-19T09:05:55.517Z,1.65
2022-08-19T09:08:37.004Z,2.03
2022-08-19T09:11:16.929Z,1.35
2022-08-19T09:14:40.821Z,1.60
2022-08-19T09:17:11.252Z,2.30
2022-08-19T09:20:17.523Z,1.30
2022-08-19T09:22:52.794Z,1.55
2022-08-19T09:25:26.964Z,1.20
2022-08-19T09:28:05.505Z,1.48
2022-08-19T09:30:42.538Z,1.20
2022-08-19T09:33:14.727Z,1.20
2022-08-19T09:35:49.749Z,1.63
2022-08-19T09:38:25.365Z,1.38
2022-08-19T09:40:57.332Z,2.20
2022-08-19T09:43:33.253Z,1.70
2022-08-19T09:46:10.063Z,1.45
2022-08-19T09:48:43.343Z,1.35
2022-08-19T09:51:21.413Z,1.33
2022-08-19T09:53:57.838Z,1.70
2022-08-19T09:56:31.406Z,1.27
2022-08-19T09:59:05.217Z,1.52
2022-08-19T10:01:37.385Z,1.17
2022-08-19T10:04:20.118Z,0.90
2022-08-19T10:06:57.413Z,1.42
2022-08-19T10:09:34.482Z,1.25
2022-08-19T10:12:11.170Z,1.05
2022-08-19T10:14:43.594Z,1.10
2022-08-19T10:17:17.993Z,1.10
2022-08-19T10:19:55.548Z,1.40
2022-08-19T10:22:28.125Z,1.05
2022-08-19T10:25:00.107Z,2.30
2022-08-19T10:27:32.636Z,1.20
2022-08-19T10:30:10.088Z,1.10
2022-08-19T10:32:46.465Z,1.23
2022-08-19T10:35:21.125Z,0.80
2022-08-19T10:37:57.357Z,1.20
2022-08-19T10:40:30.045Z,1.10
2022-08-19T10:43:02.021Z,1.50
2022-08-19T10:45:34.007Z,1.10
2022-08-19T10:48:06.040Z,1.40
2022-08-19T10:50:56.957Z,0.80
2022-08-19T10:53:28.909Z,0.73
2022-08-19T10:56:19.311Z,1.60
2022-08-19T10:58:51.416Z,0.80
2022-08-19T11:01:23.468Z,0.85
2022-08-19T11:03:55.448Z,0.93
2022-08-19T11:06:27.718Z,0.57
2022-08-19T11:09:01.088Z,0.63
2022-08-19T11:11:33.525Z,0.82
2022-08-19T11:14:14.811Z,0.93
2022-08-19T11:16:48.326Z,1.00
2022-08-19T11:19:20.366Z,1.30
2022-08-19T11:21:54.840Z,0.80
2022-08-19T11:24:31.533Z,1.50
2022-08-19T11:27:10.158Z,0.60
2022-08-19T11:29:42.214Z,0.40
2022-08-19T11:32:14.311Z,0.50
2022-08-19T11:34:46.255Z,0.40
2022-08-19T11:37:18.301Z,0.50
2022-08-19T11:39:53.513Z,0.30
2022-08-19T11:42:44.265Z,0.52
2022-08-19T11:45:16.384Z,0.40
2022-08-19T11:47:48.777Z,0.40
2022-08-19T11:50:21.166Z,0.50
2022-08-19T11:52:59.146Z,0.30
2022-08-19T11:55:31.131Z,0.50
2022-08-19T11:58:06.973Z,0.60
2022-08-19T12:00:51.094Z,0.90
2022-08-19T12:03:23.604Z,0.63
2022-08-19T12:05:55.877Z,0.50
2022-08-19T12:08:27.917Z,0.40
2022-08-19T12:11:02.067Z,0.20
2022-08-19T12:13:34.187Z,0.40
2022-08-19T12:16:17.836Z,0.55
2022-08-19T12:18:51.944Z,0.38
2022-08-19T12:21:29.633Z,0.35
2022-08-19T12:24:04.775Z,0.57
2022-08-19T12:26:52.841Z,0.40
2022-08-19T12:32:03.926Z,0.40
2022-08-19T12:34:37.831Z,0.70
2022-08-19T12:37:10.054Z,0.55
2022-08-19T12:39:43.597Z,0.50
2022-08-19T12:42:16.057Z,0.50
2022-08-19T12:44:48.672Z,0.73
2022-08-19T12:47:21.498Z,1.00
2022-08-19T12:49:55.771Z,0.57
2022-08-19T12:52:29.189Z,0.60
2022-08-19T12:55:01.301Z,0.40
2022-08-19T12:57:35.671Z,0.60
2022-08-19T13:00:17.808Z,0.40
2022-08-19T13:02:53.044Z,0.50
2022-08-19T13:05:29.635Z,0.20
2022-08-19T13:08:02.676Z,0.30
2022-08-19T13:10:37.053Z,0.57
2022-08-19T13:13:13.517Z,0.45
2022-08-19T13:15:46.367Z,0.20
2022-08-19T13:18:18.304Z,0.30
2022-08-19T13:20:52.648Z,0.30
2022-08-19T13:23:25.147Z,0.35
2022-08-19T13:26:02.451Z,0.30
2022-08-19T13:28:54.275Z,0.10
2022-08-19T13:31:50.200Z,0.57
2022-08-19T13:34:37.978Z,0.20
2022-08-19T13:37:10.006Z,0.20
2022-08-19T13:39:42.023Z,0.25
2022-08-19T13:42:14.953Z,0.50
2022-08-19T13:44:48.824Z,0.13
2022-08-19T13:47:20.926Z,0.28
2022-08-19T13:49:53.209Z,0.40
2022-08-19T13:52:26.104Z,0.40
2022-08-19T13:54:58.180Z,0.40
2022-08-19T13:57:30.148Z,0.60
2022-08-19T14:00:03.784Z,0.40
2022-08-19T14:02:35.977Z,0.50
2022-08-19T14:05:11.439Z,0.50
2022-08-19T14:07:43.773Z,0.40
2022-08-19T14:10:17.717Z,0.50
2022-08-19T14:12:50.310Z,0.52
2022-08-19T14:15:24.228Z,0.40
2022-08-19T14:17:57.131Z,0.52
2022-08-19T14:20:29.392Z,0.40
2022-08-19T14:23:01.934Z,0.65
2022-08-19T14:25:35.177Z,0.63
2022-08-19T14:28:08.719Z,0.55
2022-08-19T14:30:40.802Z,0.40
2022-08-19T14:33:12.865Z,1.05
2022-08-19T14:35:46.025Z,0.75
2022-08-19T14:38:22.018Z,0.40
2022-08-19T14:41:14.925Z,0.80
2022-08-19T14:43:52.450Z,0.77
2022-08-19T14:46:29.636Z,0.90
2022-08-19T14:49:09.521Z,0.90
2022-08-19T14:51:41.768Z,0.85
2022-08-19T14:54:14.459Z,0.85
2022-08-19T14:56:46.570Z,0.80
2022-08-19T14:59:19.365Z,1.02
2022-08-19T15:01:51.540Z,0.80
2022-08-19T15:04:23.518Z,0.80
2022-08-19T15:06:55.680Z,0.98
2022-08-19T15:09:27.656Z,1.85
2022-08-19T15:12:01.435Z,0.70
2022-08-19T15:14:35.310Z,0.93
2022-08-19T15:17:07.348Z,0.82
2022-08-19T15:19:39.894Z,1.00
2022-08-19T15:22:12.062Z,0.98
2022-08-19T15:24:48.022Z,1.45
2022-08-19T15:27:20.502Z,1.02
2022-08-19T15:29:56.485Z,0.93
2022-08-19T15:32:33.403Z,0.70
2022-08-19T15:35:08.111Z,1.25
2022-08-19T15:37:40.159Z,0.93
2022-08-19T15:40:12.706Z,1.00
2022-08-19T15:42:44.971Z,1.15
2022-08-19T15:45:18.752Z,1.23
2022-08-19T15:47:50.834Z,0.73
2022-08-19T15:50:23.538Z,0.90
2022-08-19T15:53:03.930Z,1.10
2022-08-19T15:55:44.329Z,1.15
2022-08-19T15:58:35.352Z,1.00
2022-08-19T16:01:27.568Z,1.27
2022-08-19T16:04:20.150Z,0.90
2022-08-19T16:06:57.222Z,1.25
2022-08-19T16:09:31.847Z,1.23
2022-08-19T16:12:06.386Z,1.20
2022-08-19T16:14:38.508Z,1.35
2022-08-19T16:17:12.680Z,1.30
2022-08-19T16:19:44.715Z,1.48
2022-08-19T16:22:17.297Z,1.20
2022-08-19T16:24:49.286Z,1.20
2022-08-19T16:27:22.582Z,1.20
2022-08-19T16:29:54.854Z,0.95
2022-08-19T16:32:27.159Z,1.23
2022-08-19T16:35:03.265Z,1.23
2022-08-19T16:37:38.176Z,1.25
2022-08-19T16:40:11.212Z,1.05
2022-08-19T16:42:43.232Z,1.33
2022-08-19T16:45:15.298Z,1.50
2022-08-19T16:47:47.359Z,1.33
2022-08-19T16:50:33.559Z,1.30
2022-08-19T16:53:21.716Z,1.30
2022-08-19T16:55:57.244Z,1.42
2022-08-19T16:58:34.165Z,1.25
2022-08-19T17:01:10.446Z,1.25
2022-08-19T17:03:42.781Z,1.13
2022-08-19T17:06:26.505Z,1.08
2022-08-19T17:09:01.248Z,1.10
2022-08-19T17:11:33.977Z,1.00
2022-08-19T17:14:06.667Z,1.25
2022-08-19T17:16:39.477Z,1.75
2022-08-19T17:19:11.672Z,1.15
2022-08-19T17:21:43.755Z,1.10
2022-08-19T17:24:15.763Z,1.42
2022-08-19T17:26:47.731Z,0.90
2022-08-19T17:29:19.805Z,1.38
2022-08-19T17:31:51.810Z,1.15
2022-08-19T17:34:23.908Z,1.30
2022-08-19T17:36:58.466Z,1.02
2022-08-19T17:39:30.491Z,1.05
2022-08-19T17:42:09.955Z,1.05
2022-08-19T17:44:42.249Z,0.90
2022-08-19T17:47:16.766Z,0.90
2022-08-19T17:49:48.929Z,1.10
2022-08-19T17:52:22.103Z,1.10
2022-08-19T17:54:54.194Z,1.00
2022-08-19T17:57:26.301Z,1.00
2022-08-19T17:59:58.716Z,1.08
2022-08-19T18:02:31.278Z,1.02
2022-08-19T18:05:05.218Z,1.40
2022-08-19T18:07:37.271Z,1.48
2022-08-19T18:10:10.247Z,1.73
2022-08-19T18:12:44.345Z,1.23
2022-08-19T18:15:17.558Z,1.30
2022-08-19T18:17:49.917Z,1.33
2022-08-19T18:20:22.263Z,1.70
2022-08-19T18:22:57.516Z,1.60
2022-08-19T18:25:50.291Z,1.83
2022-08-19T18:28:23.894Z,1.27
2022-08-19T18:30:56.392Z,1.60
2022-08-19T18:33:28.587Z,1.65
2022-08-19T18:36:01.922Z,1.55
2022-08-19T18:38:52.434Z,2.85
2022-08-19T18:41:43.228Z,2.10
2022-08-19T18:44:34.158Z,1.90
2022-08-19T18:47:24.980Z,1.52
2022-08-19T18:49:57.001Z,1.40
2022-08-19T18:52:29.171Z,1.45
2022-08-19T18:55:02.859Z,1.20
2022-08-19T18:57:35.462Z,1.13
2022-08-19T19:00:09.183Z,1.48
2022-08-19T19:02:41.372Z,1.38
2022-08-19T19:05:15.288Z,1.40
2022-08-19T19:07:47.905Z,1.45
2022-08-19T19:10:22.822Z,1.40
2022-08-19T19:12:55.101Z,1.73
2022-08-19T19:15:29.554Z,1.83
2022-08-19T19:18:01.584Z,1.77
2022-08-19T19:20:36.458Z,2.00
2022-08-19T19:23:09.257Z,1.50
2022-08-19T19:25:50.564Z,1.80
2022-08-19T19:28:28.407Z,1.80
2022-08-19T19:31:00.594Z,1.30
2022-08-19T19:33:33.258Z,1.50
2022-08-19T19:36:05.770Z,1.30
2022-08-19T19:38:37.818Z,1.40
2022-08-19T19:41:10.137Z,1.23
2022-08-19T19:43:42.874Z,1.60
2022-08-19T19:46:15.725Z,1.52
2022-08-19T19:48:48.287Z,1.70
2022-08-19T19:51:20.606Z,1.60
2022-08-19T19:53:54.180Z,1.30
2022-08-19T19:56:26.547Z,1.48
2022-08-19T19:58:58.814Z,1.52
2022-08-19T20:01:31.137Z,2.10
2022-08-19T20:04:03.615Z,2.25
2022-08-19T20:06:35.647Z,1.75
2022-08-19T20:09:08.209Z,1.33
2022-08-19T20:11:44.777Z,1.90
2022-08-19T20:14:31.802Z,2.15
2022-08-19T20:17:05.432Z,1.90
2022-08-19T20:19:37.762Z,1.40
2022-08-19T20:22:10.554Z,1.40
2022-08-19T20:24:44.898Z,1.67
2022-08-19T20:27:19.071Z,1.77
2022-08-19T20:29:54.991Z,1.13
2022-08-19T20:32:26.982Z,1.73
2022-08-19T20:34:59.933Z,1.83
2022-08-19T20:37:32.504Z,1.95
2022-08-19T20:40:06.974Z,1.83
2022-08-19T20:42:42.534Z,1.75
2022-08-19T20:45:32.159Z,1.80
2022-08-19T20:48:07.656Z,2.70
2022-08-19T20:50:40.497Z,2.38
2022-08-19T20:53:19.894Z,2.47
2022-08-19T20:55:55.461Z,2.00
2022-08-19T20:58:31.938Z,1.58
2022-08-19T21:01:06.566Z,1.85
2022-08-19T21:03:43.391Z,1.90
2022-08-19T21:06:15.564Z,1.70
2022-08-19T21:08:47.776Z,2.38
2022-08-19T21:11:21.428Z,1.50
2022-08-19T21:13:53.480Z,1.92
2022-08-19T21:16:25.570Z,1.85
2022-08-19T21:18:57.513Z,2.22
2022-08-19T21:21:29.529Z,1.58
2022-08-19T21:24:01.818Z,1.90
2022-08-19T21:26:33.818Z,1.60
2022-08-19T21:29:06.162Z,1.67
2022-08-19T21:31:38.199Z,1.70
2022-08-19T21:34:13.014Z,1.88
2022-08-19T21:36:45.053Z,1.90
2022-08-19T21:39:16.989Z,1.90
2022-08-19T21:41:49.084Z,1.48
2022-08-19T21:44:21.309Z,2.03
2022-08-19T21:46:53.354Z,1.90
2022-08-19T21:49:25.465Z,1.95
2022-08-19T21:51:58.597Z,1.40
2022-08-19T21:54:38.129Z,1.63
2022-08-19T21:57:11.107Z,1.58
2022-08-19T21:59:44.146Z,1.77
2022-08-19T22:02:21.582Z,2.05
2022-08-19T22:04:54.039Z,2.28
2022-08-19T22:07:26.243Z,2.55
2022-08-19T22:09:58.235Z,2.50
2022-08-19T22:12:35.152Z,2.90
2022-08-19T22:15:09.184Z,2.50
2022-08-19T22:17:42.287Z,2.40
2022-08-19T22:20:19.985Z,2.83
2022-08-19T22:22:57.158Z,2.40
2022-08-19T22:25:45.698Z,2.00
2022-08-19T22:28:18.745Z,1.98
2022-08-19T22:30:51.320Z,1.90
2022-08-19T22:33:24.226Z,2.30
2022-08-19T22:35:57.408Z,2.00
2022-08-19T22:38:29.436Z,2.08
2022-08-19T22:41:02.099Z,2.33
2022-08-19T22:43:34.366Z,2.70
2022-08-19T22:46:17.122Z,2.60
2022-08-19T22:49:01.306Z,2.58
2022-08-19T22:51:52.742Z,2.58
2022-08-19T22:54:25.014Z,2.38
2022-08-19T22:56:57.050Z,2.08
2022-08-19T22:59:29.680Z,2.03
2022-08-19T23:02:01.676Z,2.58
2022-08-19T23:04:34.225Z,2.42
2022-08-19T23:07:06.319Z,2.60
2022-08-19T23:09:41.530Z,2.28
2022-08-19T23:12:17.124Z,1.95
2022-08-19T23:14:49.119Z,2.33
2022-08-19T23:17:21.446Z,2.58
2022-08-19T23:19:53.484Z,2.17
2022-08-19T23:22:25.899Z,2.00
2022-08-19T23:25:14.882Z,2.90
2022-08-19T23:28:07.900Z,2.00
2022-08-19T23:30:45.497Z,2.05
2022-08-19T23:33:26.533Z,1.92
2022-08-19T23:36:20.283Z,1.80
2022-08-19T23:38:52.415Z,2.08
2022-08-19T23:41:27.200Z,1.90
2022-08-19T23:44:00.438Z,2.28
2022-08-19T23:46:32.556Z,2.40
2022-08-19T23:49:18.203Z,1.98
2022-08-19T23:51:50.192Z,2.30
2022-08-19T23:54:23.567Z,2.47
2022-08-19T23:57:15.553Z,2.03
2022-08-19T23:59:47.551Z,2.55
